createdAt,value
2018-12-04T00:00:39.785Z,99026.79
2018-12-04T00:03:10.174Z,99026.45
2018-12-04T00:05:40.654Z,99018.55
2018-12-04T00:08:10.427Z,99018.36
2018-12-04T00:10:40.191Z,99011.61
2018-12-04T00:13:10.342Z,99010.11
2018-12-04T00:15:40.433Z,99020.34
2018-12-04T00:18:10.624Z,99022.49
2018-12-04T00:20:40.372Z,99030.73
2018-12-04T00:23:10.288Z,99028.44
2018-12-04T00:25:40.339Z,99020.52
2018-12-04T00:28:10.116Z,99023.81
2018-12-04T00:30:40.220Z,99022.17
2018-12-04T00:33:10.280Z,99029.75
2018-12-04T00:35:40.500Z,99038.67
2018-12-04T00:38:10.469Z,99042.63
2018-12-04T00:40:40.322Z,99054.17
2018-12-04T00:43:10.224Z,99055.49
2018-12-04T00:45:40.346Z,99050.03
2018-12-04T00:48:10.471Z,99054.17
2018-12-04T00:50:40.408Z,99053.52
2018-12-04T00:53:11.316Z,99053.66
2018-12-04T00:55:41.760Z,99052.20
2018-12-04T00:58:11.732Z,99055.16
2018-12-04T01:00:43.822Z,99048.90
2018-12-04T01:03:13.685Z,99043.62
2018-12-04T01:05:43.721Z,99055.16
2018-12-04T01:08:13.507Z,99059.12
2018-12-04T01:10:43.461Z,99055.97
2018-12-04T01:13:13.617Z,99067.52
2018-12-04T01:15:43.527Z,99067.38
2018-12-04T01:18:13.562Z,99075.11
2018-12-04T01:20:43.385Z,99078.26
2018-12-04T01:23:13.472Z,99070.02
2018-12-04T01:25:43.554Z,99074.45
2018-12-04T01:28:14.544Z,99073.13
2018-12-04T01:30:44.494Z,99069.68
2018-12-04T01:33:14.266Z,99067.70
2018-12-04T01:35:44.777Z,99064.07
2018-12-04T01:38:14.606Z,99070.02
2018-12-04T01:40:44.370Z,99059.27
2018-12-04T01:43:14.506Z,99059.27
2018-12-04T01:45:44.315Z,99064.73
2018-12-04T01:48:14.317Z,99068.03
2018-12-04T01:50:44.117Z,99066.05
2018-12-04T01:53:14.216Z,99075.28
2018-12-04T01:55:44.334Z,99073.64
2018-12-04T01:58:14.363Z,99074.95
2018-12-04T02:00:44.861Z,99080.05
2018-12-04T02:03:14.651Z,99080.23
2018-12-04T02:05:44.620Z,99078.59
2018-12-04T02:08:14.603Z,99074.45
2018-12-04T02:10:44.412Z,99077.59
2018-12-04T02:13:14.846Z,99074.95
2018-12-04T02:15:44.888Z,99076.61
2018-12-04T02:18:15.019Z,99073.97
2018-12-04T02:20:45.353Z,99080.72
2018-12-04T02:23:15.132Z,99078.59
2018-12-04T02:25:45.383Z,99081.05
2018-12-04T02:28:15.442Z,99079.91
2018-12-04T02:30:45.518Z,99071.33
2018-12-04T02:33:15.445Z,99081.89
2018-12-04T02:35:45.205Z,99086.84
2018-12-04T02:38:15.318Z,99073.97
2018-12-04T02:40:45.346Z,99087.64
2018-12-04T02:43:15.411Z,99095.09
2018-12-04T02:45:45.481Z,99098.72
2018-12-04T02:48:15.411Z,99097.88
2018-12-04T02:50:46.672Z,99107.63
2018-12-04T02:53:16.487Z,99103.34
2018-12-04T02:55:46.323Z,99100.36
2018-12-04T02:58:16.606Z,99102.02
2018-12-04T03:00:46.418Z,99104.80
2018-12-04T03:03:16.679Z,98995.74
2018-12-04T03:05:46.689Z,99106.12
2018-12-04T03:08:16.431Z,99109.27
2018-12-04T03:10:46.343Z,99106.96
2018-12-04T03:13:16.349Z,99110.59
2018-12-04T03:15:46.635Z,99116.20
2018-12-04T03:18:16.415Z,99110.59
2018-12-04T03:20:46.520Z,99110.59
2018-12-04T03:23:16.826Z,99111.73
2018-12-04T03:25:46.742Z,99119.83
2018-12-04T03:28:16.742Z,99116.52
2018-12-04T03:30:46.514Z,99118.32
2018-12-04T03:33:28.747Z,99122.78
2018-12-04T03:35:58.533Z,99117.17
2018-12-04T03:38:28.390Z,99119.83
2018-12-04T03:40:58.598Z,99119.97
2018-12-04T03:44:10.541Z,99119.64
2018-12-04T03:46:40.410Z,99120.30
2018-12-04T03:49:10.517Z,99128.40
2018-12-04T03:51:40.592Z,99127.41
2018-12-04T03:54:11.552Z,99121.47
2018-12-04T03:56:41.621Z,99128.40
2018-12-04T03:59:11.441Z,99128.40
2018-12-04T04:01:41.488Z,99135.33
2018-12-04T04:04:11.457Z,99142.58
2018-12-04T04:06:41.507Z,99138.77
2018-12-04T04:09:11.353Z,99144.23
2018-12-04T04:14:22.397Z,99151.95
2018-12-04T04:16:53.135Z,99157.75
2018-12-04T04:19:23.549Z,99150.31
2018-12-04T04:21:53.545Z,99153.13
2018-12-04T04:24:23.706Z,99154.93
2018-12-04T04:26:53.688Z,99155.44
2018-12-04T04:29:23.510Z,99159.88
2018-12-04T04:31:53.470Z,99160.53
2018-12-04T04:34:23.564Z,99166.48
2018-12-04T04:36:53.474Z,99157.08
2018-12-04T04:39:23.474Z,99159.06
2018-12-04T04:41:53.687Z,99157.42
2018-12-04T04:44:23.609Z,99162.52
2018-12-04T04:46:54.557Z,99158.56
2018-12-04T04:49:24.560Z,99157.75
2018-12-04T04:51:54.371Z,99162.84
2018-12-04T04:54:24.472Z,99168.31
2018-12-04T04:56:55.264Z,99164.83
2018-12-04T04:59:25.357Z,99165.02
2018-12-04T05:01:55.749Z,99170.64
2018-12-04T05:04:25.548Z,99171.44
2018-12-04T05:06:55.447Z,99174.27
2018-12-04T05:12:07.641Z,99178.37
2018-12-04T05:14:37.716Z,99174.59
2018-12-04T05:17:07.532Z,99173.10
2018-12-04T05:19:37.509Z,99179.04
2018-12-04T05:22:07.463Z,99176.41
2018-12-04T05:24:37.729Z,99180.36
2018-12-04T05:27:07.918Z,99184.31
2018-12-04T05:29:38.028Z,99178.03
2018-12-04T05:32:08.418Z,99192.56
2018-12-04T05:34:38.544Z,99195.39
2018-12-04T05:37:08.482Z,99192.75
2018-12-04T05:39:38.372Z,99207.59
2018-12-04T05:42:08.635Z,99203.63
2018-12-04T05:44:38.722Z,99208.26
2018-12-04T05:47:08.581Z,99208.26
2018-12-04T05:49:38.515Z,99221.45
2018-12-04T05:52:11.360Z,99226.23
2018-12-04T05:54:42.189Z,99230.19
2018-12-04T05:57:12.482Z,99227.07
2018-12-04T05:59:42.578Z,99236.14
2018-12-04T06:02:13.784Z,99243.23
2018-12-04T06:04:43.642Z,99245.03
2018-12-04T06:07:13.489Z,99242.73
2018-12-04T06:09:43.526Z,99202.92
2018-12-04T06:12:18.995Z,99249.84
2018-12-04T06:15:06.894Z,99255.93
2018-12-04T06:17:36.999Z,99256.92
2018-12-04T06:20:07.441Z,99265.68
2018-12-04T06:22:37.319Z,99278.70
2018-12-04T06:25:09.120Z,99276.62
2018-12-04T06:27:39.304Z,99274.59
2018-12-04T06:30:10.152Z,99288.44
2018-12-04T06:32:41.435Z,99288.11
2018-12-04T06:35:11.368Z,99302.85
2018-12-04T06:37:41.189Z,99292.41
2018-12-04T06:40:11.391Z,99296.19
2018-12-04T06:42:41.539Z,99303.96
2018-12-04T06:45:11.614Z,99316.51
2018-12-04T06:47:41.617Z,99316.98
2018-12-04T06:50:13.088Z,99320.93
2018-12-04T06:52:49.493Z,99325.55
2018-12-04T06:55:19.261Z,99323.56
2018-12-04T06:58:03.837Z,99327.04
2018-12-04T07:00:33.731Z,99328.84
2018-12-04T07:03:04.626Z,99342.70
2018-12-04T07:05:34.405Z,99342.56
2018-12-04T07:08:04.312Z,99352.30
2018-12-04T07:10:34.584Z,99351.30
2018-12-04T07:13:04.775Z,99356.10
2018-12-04T07:15:34.909Z,99359.22
2018-12-04T07:18:04.972Z,99366.14
2018-12-04T07:20:35.660Z,99372.92
2018-12-04T07:23:05.483Z,99373.07
2018-12-04T07:25:35.318Z,99382.84
2018-12-04T07:28:05.844Z,99389.25
2018-12-04T07:30:35.813Z,99385.80
2018-12-04T07:33:05.901Z,99394.87
2018-12-04T07:35:36.036Z,99394.22
2018-12-04T07:38:06.132Z,99374.68
2018-12-04T07:40:36.207Z,99400.01
2018-12-04T07:43:06.204Z,99403.12
2018-12-04T07:45:36.607Z,99411.38
2018-12-04T07:48:06.486Z,99419.64
2018-12-04T07:50:36.571Z,99431.22
2018-12-04T07:53:07.079Z,99430.23
2018-12-04T07:55:37.202Z,99429.42
2018-12-04T07:58:08.317Z,99431.41
2018-12-04T08:00:38.385Z,99430.56
2018-12-04T08:03:08.599Z,99428.25
2018-12-04T08:05:38.616Z,99427.59
2018-12-04T08:08:08.504Z,99433.22
2018-12-04T08:10:38.375Z,99432.56
2018-12-04T08:13:10.207Z,99444.12
2018-12-04T08:15:40.355Z,99450.92
2018-12-04T08:18:12.976Z,99461.48
2018-12-04T08:20:43.773Z,99468.42
2018-12-04T08:23:14.363Z,99470.55
2018-12-04T08:25:45.076Z,99483.61
2018-12-04T08:28:15.715Z,99440.05
2018-12-04T08:30:47.288Z,99491.89
2018-12-04T08:33:19.165Z,99489.91
2018-12-04T08:35:50.427Z,99507.92
2018-12-04T08:38:20.377Z,99506.28
2018-12-04T08:40:50.594Z,99512.58
2018-12-04T08:43:20.472Z,99525.98
2018-12-04T08:45:50.259Z,99442.48
2018-12-04T08:48:20.376Z,99536.57
2018-12-04T08:50:50.523Z,99543.20
2018-12-04T08:53:20.357Z,99545.52
2018-12-04T08:55:51.487Z,99551.48
2018-12-04T08:58:21.506Z,99562.55
2018-12-04T09:03:38.221Z,99562.61
2018-12-04T09:06:12.368Z,99573.55
2018-12-04T09:08:42.488Z,99575.53
2018-12-04T09:11:12.844Z,99577.70
2018-12-04T09:13:42.948Z,99585.12
2018-12-04T09:16:13.106Z,99587.29
2018-12-04T09:18:43.746Z,99585.97
2018-12-04T09:21:13.616Z,99595.22
2018-12-04T09:23:44.201Z,99592.70
2018-12-04T09:26:14.218Z,99602.50
2018-12-04T09:28:44.586Z,99606.93
2018-12-04T09:31:14.603Z,99610.90
2018-12-04T09:33:44.876Z,99626.75
2018-12-04T09:36:15.304Z,99619.39
2018-12-04T09:38:45.519Z,99625.91
2018-12-04T09:41:16.140Z,99633.48
2018-12-04T09:43:46.441Z,99639.25
2018-12-04T09:46:16.499Z,99645.32
2018-12-04T09:48:46.720Z,99647.55
2018-12-04T09:51:16.528Z,99659.23
2018-12-04T09:53:51.913Z,99663.61
2018-12-04T09:56:18.499Z,99671.80
2018-12-04T09:58:48.562Z,99680.70
2018-12-04T10:01:18.579Z,99686.84
2018-12-04T10:03:48.521Z,99700.94
2018-12-04T10:06:18.598Z,99709.02
2018-12-04T10:08:48.446Z,99709.16
2018-12-04T10:11:18.183Z,99720.31
2018-12-04T10:13:48.294Z,99730.39
2018-12-04T10:16:18.590Z,99733.96
2018-12-04T10:18:48.910Z,99730.69
2018-12-04T10:21:19.068Z,99728.39
2018-12-04T10:23:49.564Z,99735.25
2018-12-04T10:26:19.900Z,99744.45
2018-12-04T10:28:50.615Z,99759.99
2018-12-04T10:31:20.575Z,99756.03
2018-12-04T10:33:50.472Z,99760.47
2018-12-04T10:36:20.649Z,99770.00
2018-12-04T10:38:50.577Z,99776.21
2018-12-04T10:41:21.526Z,99770.07
2018-12-04T10:43:51.885Z,99790.41
2018-12-04T10:46:21.675Z,99805.50
2018-12-04T10:48:51.520Z,99809.06
2018-12-04T10:51:21.705Z,99805.74
2018-12-04T10:53:51.511Z,99811.02
2018-12-04T10:56:21.920Z,99816.24
2018-12-04T10:58:52.912Z,99816.53
2018-12-04T11:01:25.237Z,99817.50
2018-12-04T11:03:55.051Z,99828.75
2018-12-04T11:06:25.484Z,99830.41
2018-12-04T11:08:55.574Z,99837.41
2018-12-04T11:11:25.355Z,99847.33
2018-12-04T11:13:55.445Z,99849.44
2018-12-04T11:16:25.573Z,99840.09
2018-12-04T11:18:56.032Z,99844.91
2018-12-04T11:21:26.228Z,99847.20
2018-12-04T11:23:56.255Z,99852.82
2018-12-04T11:26:26.596Z,99864.02
2018-12-04T11:28:56.452Z,99875.48
2018-12-04T11:31:26.405Z,99882.72
2018-12-04T11:33:57.409Z,99896.43
2018-12-04T11:36:27.518Z,99894.08
2018-12-04T11:38:57.261Z,99918.39
2018-12-04T11:41:27.142Z,99915.69
2018-12-04T11:43:57.564Z,99913.17
2018-12-04T11:46:27.435Z,99919.14
2018-12-04T11:51:43.758Z,99932.62
2018-12-04T11:54:13.822Z,99940.34
2018-12-04T11:56:43.994Z,99951.28
2018-12-04T11:59:16.140Z,99953.88
2018-12-04T12:01:47.456Z,99950.88
2018-12-04T12:04:17.435Z,99962.33
2018-12-04T12:06:47.221Z,99971.48
2018-12-04T12:09:17.387Z,99973.84
2018-12-04T12:11:47.560Z,99984.11
2018-12-04T12:14:17.362Z,99977.72
2018-12-04T12:16:47.572Z,99986.05
2018-12-04T12:19:17.374Z,99999.19
2018-12-04T12:21:47.242Z,100003.08
2018-12-04T12:24:17.760Z,99999.59
2018-12-04T12:26:47.868Z,100005.55
2018-12-04T12:29:18.207Z,100014.59
2018-12-04T12:31:48.264Z,100028.72
2018-12-04T12:34:23.395Z,100022.98
2018-12-04T12:36:50.460Z,100028.38
2018-12-04T12:39:20.248Z,100042.94
2018-12-04T12:41:50.383Z,100051.58
2018-12-04T12:44:20.529Z,100052.02
2018-12-04T12:46:50.752Z,100060.70
2018-12-04T12:49:20.632Z,100065.05
2018-12-04T12:51:50.605Z,100067.64
2018-12-04T12:54:20.739Z,100064.66
2018-12-04T12:56:53.605Z,100073.14
2018-12-04T12:59:23.619Z,100074.13
2018-12-04T13:02:00.774Z,100077.72
2018-12-04T13:04:30.725Z,100096.26
2018-12-04T13:07:00.714Z,100086.56
2018-12-04T13:09:30.520Z,100092.27
2018-12-04T13:12:00.536Z,100095.70
2018-12-04T13:14:30.524Z,100100.70
2018-12-04T13:17:00.494Z,100100.92
2018-12-04T13:19:30.277Z,100108.42
2018-12-04T13:22:00.457Z,100116.14
2018-12-04T13:24:30.398Z,100120.36
2018-12-04T13:27:00.464Z,100124.58
2018-12-04T13:29:31.207Z,100126.19
2018-12-04T13:32:01.269Z,100141.15
2018-12-04T13:34:31.750Z,100143.09
2018-12-04T13:37:02.168Z,100150.81
2018-12-04T13:39:32.605Z,100154.52
2018-12-04T13:42:02.607Z,100153.39
2018-12-04T13:44:32.559Z,100159.75
2018-12-04T13:47:02.814Z,100127.85
2018-12-04T13:49:32.653Z,100169.64
2018-12-04T13:52:02.570Z,100170.73
2018-12-04T13:54:32.612Z,100184.94
2018-12-04T13:57:02.486Z,100184.16
2018-12-04T13:59:32.548Z,100184.52
2018-12-04T14:02:02.580Z,100190.97
2018-12-04T14:04:33.743Z,100197.23
2018-12-04T14:07:05.651Z,100200.94
2018-12-04T14:09:36.099Z,100210.87
2018-12-04T14:12:06.395Z,100204.11
2018-12-04T14:14:36.694Z,100206.16
2018-12-04T14:17:06.597Z,100212.70
2018-12-04T14:19:36.747Z,100234.63
2018-12-04T14:22:06.625Z,100226.63
2018-12-04T14:24:36.453Z,100239.38
2018-12-04T14:27:06.548Z,100253.36
2018-12-04T14:29:37.097Z,100252.47
2018-12-04T14:32:07.029Z,100258.33
2018-12-04T14:34:37.172Z,100252.00
2018-12-04T14:37:07.565Z,100262.80
2018-12-04T14:39:50.521Z,100269.11
2018-12-04T14:42:20.920Z,100208.25
2018-12-04T14:44:51.786Z,100277.58
2018-12-04T14:47:22.524Z,100284.28
2018-12-04T14:49:52.674Z,100281.55
2018-12-04T14:52:22.593Z,100293.45
2018-12-04T14:54:52.579Z,100293.55
2018-12-04T14:57:27.057Z,100299.89
2018-12-04T14:59:57.298Z,100310.69
2018-12-04T15:02:27.826Z,100315.39
2018-12-04T15:04:57.971Z,100323.45
2018-12-04T15:07:28.580Z,100329.78
2018-12-04T15:09:59.670Z,100333.88
2018-12-04T15:12:29.732Z,100341.42
2018-12-04T15:14:59.682Z,100334.70
2018-12-04T15:17:30.152Z,100345.37
2018-12-04T15:20:01.586Z,100345.27
2018-12-04T15:22:31.441Z,100357.94
2018-12-04T15:25:02.747Z,100349.68
2018-12-04T15:27:32.640Z,100358.46
2018-12-04T15:30:02.704Z,100362.92
2018-12-04T15:32:32.849Z,100365.80
2018-12-04T15:35:02.812Z,100375.02
2018-12-04T15:37:32.845Z,100386.16
2018-12-04T15:40:03.745Z,100390.11
2018-12-04T15:42:33.711Z,100397.40
2018-12-04T15:45:03.636Z,100406.09
2018-12-04T15:47:33.636Z,100408.24
2018-12-04T15:50:03.683Z,100406.80
2018-12-04T15:52:33.968Z,100413.73
2018-12-04T15:55:05.540Z,100416.37
2018-12-04T15:57:35.640Z,100422.34
2018-12-04T16:00:09.615Z,100426.28
2018-12-04T16:02:39.527Z,100430.95
2018-12-04T16:05:11.028Z,100430.58
2018-12-04T16:07:41.299Z,100444.20
2018-12-04T16:10:14.217Z,100445.62
2018-12-04T16:12:51.513Z,100442.52
2018-12-04T16:15:21.903Z,100435.23
2018-12-04T16:17:52.163Z,100448.87
2018-12-04T16:20:22.593Z,100457.61
2018-12-04T16:22:52.747Z,100462.84
2018-12-04T16:25:22.729Z,100471.91
2018-12-04T16:27:52.910Z,100479.05
2018-12-04T16:30:23.490Z,100484.16
2018-12-04T16:32:53.679Z,100484.75
2018-12-04T16:35:23.882Z,100500.30
2018-12-04T16:40:39.206Z,100515.58
2018-12-04T16:43:09.683Z,100520.70
2018-12-04T16:45:39.772Z,100527.49
2018-12-04T16:48:09.641Z,100532.66
2018-12-04T16:50:39.563Z,100538.59
2018-12-04T16:53:09.566Z,100537.28
2018-12-04T16:55:39.480Z,100544.30
2018-12-04T16:58:09.429Z,100532.19
2018-12-04T17:00:39.443Z,100553.77
2018-12-04T17:03:09.515Z,100560.05
2018-12-04T17:05:39.446Z,100576.55
2018-12-04T17:08:09.730Z,100579.77
2018-12-04T17:10:39.524Z,100571.30
2018-12-04T17:13:09.311Z,100574.42
2018-12-04T17:15:39.664Z,100581.23
2018-12-04T17:18:09.788Z,100585.30
2018-12-04T17:20:40.100Z,100589.34
2018-12-04T17:23:10.752Z,100590.88
2018-12-04T17:25:41.185Z,100591.23
2018-12-04T17:28:12.243Z,100588.59
2018-12-04T17:30:43.704Z,100594.30
2018-12-04T17:33:14.681Z,100593.94
2018-12-04T17:35:45.874Z,100595.74
2018-12-04T17:38:17.563Z,100601.02
2018-12-04T17:40:51.531Z,100593.78
2018-12-04T17:43:21.643Z,100599.28
2018-12-04T17:45:52.037Z,100611.83
2018-12-04T17:48:23.977Z,100599.41
2018-12-04T17:50:54.614Z,100615.19
2018-12-04T17:53:24.941Z,100617.23
2018-12-04T17:55:55.383Z,100617.97
2018-12-04T17:58:25.827Z,100626.13
2018-12-04T18:00:56.012Z,100626.22
2018-12-04T18:03:26.450Z,100635.32
2018-12-04T18:05:56.505Z,100639.56
2018-12-04T18:08:26.696Z,100648.93
2018-12-04T18:10:56.774Z,100650.45
2018-12-04T18:13:27.330Z,100650.24
2018-12-04T18:15:58.524Z,100659.85
2018-12-04T18:18:28.987Z,100664.37
2018-12-04T18:20:59.797Z,100662.20
2018-12-04T18:23:30.512Z,100671.77
2018-12-04T18:26:00.853Z,100670.33
2018-12-04T18:28:31.147Z,100684.52
2018-12-04T18:31:01.682Z,100692.44
2018-12-04T18:33:31.788Z,100651.34
2018-12-04T18:36:02.032Z,100695.84
2018-12-04T18:38:32.454Z,100703.42
2018-12-04T18:41:03.086Z,100700.55
2018-12-04T18:43:33.670Z,100700.34
2018-12-04T18:46:05.581Z,100709.58
2018-12-04T18:48:41.709Z,100719.05
2018-12-04T18:51:11.958Z,100723.36
2018-12-04T18:53:42.462Z,100734.11
2018-12-04T18:56:12.980Z,100741.53
2018-12-04T18:58:46.665Z,100745.83
2018-12-04T19:01:17.680Z,100747.52
2018-12-04T19:03:48.243Z,100754.66
2018-12-04T19:06:20.043Z,100761.38
2018-12-04T19:08:51.631Z,100754.73
2018-12-04T19:11:22.113Z,100769.30
2018-12-04T19:13:52.583Z,100777.73
2018-12-04T19:16:30.106Z,100781.76
2018-12-04T19:19:02.045Z,100781.70
2018-12-04T19:21:32.813Z,100788.27
2018-12-04T19:24:03.214Z,100800.08
2018-12-04T19:26:33.891Z,100806.83
2018-12-04T19:29:04.318Z,100806.66
2018-12-04T19:31:35.132Z,100807.48
2018-12-04T19:34:05.581Z,100806.37
2018-12-04T19:36:36.082Z,100808.94
2018-12-04T19:39:09.307Z,100821.11
2018-12-04T19:41:39.822Z,100827.02
2018-12-04T19:44:10.050Z,100823.45
2018-12-04T19:46:40.636Z,100834.02
2018-12-04T19:49:13.849Z,100839.02
2018-12-04T19:51:45.345Z,100836.09
2018-12-04T19:54:15.585Z,100833.67
2018-12-04T19:56:46.311Z,100848.95
2018-12-04T19:59:23.514Z,100845.02
2018-12-04T20:01:53.915Z,100849.53
2018-12-04T20:04:24.576Z,100845.30
2018-12-04T20:06:55.476Z,100854.78
2018-12-04T20:09:26.042Z,100858.98
2018-12-04T20:11:56.650Z,100854.78
2018-12-04T20:14:27.495Z,100859.66
2018-12-04T20:16:58.128Z,100872.58
2018-12-04T20:19:28.541Z,100870.16
2018-12-04T20:21:59.562Z,100878.48
2018-12-04T20:24:30.848Z,100882.03
2018-12-04T20:27:01.853Z,100883.08
2018-12-04T20:29:33.769Z,100883.34
2018-12-04T20:32:16.837Z,100879.78
2018-12-04T20:34:47.452Z,100881.02
2018-12-04T20:37:18.025Z,100883.83
2018-12-04T20:39:49.370Z,100884.66
2018-12-04T20:42:23.222Z,100897.20
2018-12-04T20:47:37.689Z,100904.81
2018-12-04T20:50:09.602Z,100902.00
2018-12-04T20:52:39.932Z,100904.98
2018-12-04T20:55:13.754Z,100893.19
2018-12-04T20:57:44.279Z,100907.61
2018-12-04T21:00:16.263Z,100915.17
2018-12-04T21:02:46.680Z,100910.86
2018-12-04T21:05:17.072Z,100919.95
2018-12-04T21:07:47.776Z,100922.20
2018-12-04T21:10:17.914Z,100923.02
2018-12-04T21:12:48.077Z,100921.52
2018-12-04T21:15:19.661Z,100928.82
2018-12-04T21:17:50.293Z,100927.99
2018-12-04T21:20:21.343Z,100937.91
2018-12-04T21:22:52.052Z,100950.15
2018-12-04T21:25:23.235Z,100950.62
2018-12-04T21:27:58.651Z,100956.88
2018-12-04T21:30:33.693Z,100962.00
2018-12-04T21:33:08.908Z,100965.78
2018-12-04T21:35:44.476Z,100960.92
2018-12-04T21:38:30.216Z,100966.30
2018-12-04T21:41:04.348Z,100973.53
2018-12-04T21:43:39.071Z,100974.14
2018-12-04T21:46:14.751Z,100982.66
2018-12-04T21:48:45.127Z,100983.97
2018-12-04T21:51:15.344Z,100987.97
2018-12-04T21:53:45.311Z,100996.11
2018-12-04T21:56:15.656Z,100992.73
2018-12-04T21:58:45.506Z,100993.31
2018-12-04T22:01:16.711Z,100999.11
2018-12-04T22:03:46.843Z,100990.28
2018-12-04T22:06:16.789Z,101000.35
2018-12-04T22:08:46.781Z,101003.22
2018-12-04T22:11:16.725Z,101000.35
2018-12-04T22:13:46.537Z,100958.91
2018-12-04T22:16:16.440Z,101009.73
2018-12-04T22:18:47.563Z,101016.83
2018-12-04T22:21:17.547Z,101024.17
2018-12-04T22:23:47.431Z,101025.16
2018-12-04T22:26:17.554Z,101026.47
2018-12-04T22:28:47.485Z,101031.14
2018-12-04T22:31:17.480Z,101034.90
2018-12-04T22:33:47.450Z,101044.16
2018-12-04T22:36:18.868Z,101053.87
2018-12-04T22:38:48.809Z,101051.59
2018-12-04T22:41:19.429Z,101062.34
2018-12-04T22:43:50.616Z,101063.03
2018-12-04T22:46:20.490Z,101065.17
2018-12-04T22:48:50.474Z,101064.58
2018-12-04T22:51:21.046Z,101068.77
2018-12-04T22:53:51.620Z,101078.21
2018-12-04T22:56:21.597Z,101078.21
2018-12-04T22:58:51.382Z,101081.75
2018-12-04T23:01:41.186Z,101079.52
2018-12-04T23:04:11.359Z,101083.55
2018-12-04T23:06:41.364Z,101083.55
2018-12-04T23:09:11.828Z,101088.95
2018-12-04T23:11:41.668Z,101090.58
2018-12-04T23:14:11.489Z,101099.27
2018-12-04T23:16:42.696Z,101103.06
2018-12-04T23:19:12.774Z,101106.93
2018-12-04T23:21:43.654Z,101106.06
2018-12-04T23:24:13.598Z,101110.09
2018-12-04T23:26:43.336Z,101113.02
2018-12-04T23:29:23.848Z,101114.78
2018-12-04T23:31:54.121Z,101111.48
2018-12-04T23:34:24.318Z,101112.95
2018-12-04T23:36:54.084Z,101118.72
2018-12-04T23:39:24.201Z,101114.48
2018-12-04T23:41:54.357Z,101115.79
2018-12-04T23:44:25.708Z,101119.42
2018-12-04T23:46:55.523Z,101124.17
2018-12-04T23:49:25.293Z,101122.87
2018-12-04T23:51:55.419Z,101123.95
2018-12-04T23:54:25.243Z,101127.26
2018-12-04T23:56:55.089Z,101128.95
2018-12-04T23:59:25.288Z,101124.64
